AREA preflight bulletin
Updated "live" 22 Oct 2019, 02:20

back to the map




METAR og TAF


KANGERLUSSUAQ
  AKTUEL BGSF 220220Z AUTO 05007KT 9999NDV NCD M13/M15 Q1026=
  TAF 24 timer BGSF 212248Z 2200/2306 07008KT 9999 FEW070=

SISIMIUT
  AKTUEL BGSS 220220Z AUTO 09007KT 9999NDV NCD M02/M13 Q1023=
  TAF 9 timer BGSS 212034Z 2120/2121 CNL=

MANIITSOQ
  AKTUEL BGMQ 220220Z AUTO 02003KT 9999NDV NCD 02/M05 Q1019=
  TAF 9 timer BGMQ 211717Z 2117/2119 CNL=

NUUK
  AKTUEL BGGH 220220Z AUTO 05013KT 9999NDV NCD 01/M08 Q1016=
  TAF 9 timer BGGH 212104Z 2121/2122 CNL=

ILULISSAT
  AKTUEL BGJN 220220Z AUTO VRB04KT 9999NDV NCD M09/M18 Q1026=
  TAF 9 timer BGJN 211902Z 2119/2120 CNL=

AASIAAT
  AKTUEL BGAA 220220Z AUTO 07009KT 040V100 9999NDV BKN029/// M04/M10 Q1026=
  TAF 9 timer BGAA 211203Z 2112/2118 05008KT 9999 FEW001=


SIGMETS:

Ingen SIGMET fundet:

NOTAM/SNOWTAM for operationel use has to be confirmed with the
nearest AIS Briefing Office prior to a flight.

ICAO
BGSS (SISIMIUT)

FIR
BGGL

Notam_id:
BGB0585/19

valid from:
1908311125

E) BGSS AFIS FREQ 118,100 MHZ NO COVERAGE IN SECTOR BETWEEN 280 MAG AND 110 MAG BELOW 7000FT.

valid to:
1910311700


Replacing:
BGB0207/19

ICAO
BGGH (NUUK)

FIR
BGGL

Notam_id:
BGB0605/19

valid from:
1909101306

E) BGGH AFIS FREQ 119,100MHZ LIMITED RADIOCOVERAGE WITHIN TIZ TO THE NE, E, SE AND S.

valid to:
1911301300EST




ICAO
BGGL (SONDRESTROM FIR)

FIR
BGGL

Notam_id:
BGA0483/19

valid from:
1909271038

E) NUUK INFORMATION FREQ 5526 KHZ PSN 6334N03707W KULUSUK U/S.

valid to:
2004011800




ICAO
BGGL (SONDRESTROM FIR)

FIR
BGGL

Notam_id:
BGA0488/19

valid from:
1910010455

E) CHECKLIST YEAR=2017 0269 YEAR=2018 0199 YEAR=2019 0323 0416 0447 0469 0470 0471 0474 0482 0483 0485 0487 LATEST PUBLICATIONS AIP AIRAC AMDT IFR 007/2019 EFFECTIVE DATE 07 NOV 19 AIP AMDT IFR 003/2018 EFFECTIVE DATE 15 MAR 18 AIP SUP IFR 001/2019 EFFECTIVE DATE 06 JUN 19 AIC IFR A001/2019 EFFECTIVE DATE 17 JAN 19

valid to:
1911010455EST


Replacing:
BGA0454/19

ICAO
BGGL (SONDRESTROM FIR)

FIR
BGGL

Notam_id:
BGB0643/19

valid from:
1910010455

E) CHECKLIST YEAR=2017 0740 YEAR=2018 NIL YEAR=2019 0145 0506 0508 0582 0585 0605 0606 0625 0626 0627 0628 0636 0639 LATEST PUBLICATIONS AIP AIRAC AMDT IFR 007/2019 EFFECTIVE DATE 07 NOV 19 AIP AMDT IFR 003/2018 EFFECTIVE DATE 15 MAR 18 AIP SUP IFR 001/2019 EFFECTIVE DATE 06 JUN 19 AIC IFR A001/2019 EFFECTIVE DATE 17 JAN 19

valid to:
1911010455EST


Replacing:
BGB0587/19

ICAO
BGGL (SONDRESTROM FIR)

FIR
BGGL

Notam_id:
BGC0100/19

valid from:
1910010455

E) CHECKLIST YEAR=2018 0079 0081 YEAR=2019 0049 0067 0068 0070 0073 0087 0096 0098 0099 LATEST PUBLICATIONS AIP AIRAC AMDT IFR 007/2019 EFFECTIVE DATE 07 NOV 19 AIP AMDT IFR 003/2018 EFFECTIVE DATE 15 MAR 18 AIP SUP IFR 001/2019 EFFECTIVE DATE 06 JUN 19 AIC IFR A001/2019 EFFECTIVE DATE 17 JAN 19

valid to:
1911010455EST


Replacing:
BGC0086/19

ICAO
BGGL (SONDRESTROM FIR)

FIR
BGGL

Notam_id:
BGA0447/19

valid from:
1910100000

E) AIP GREENLAND AIRAC AMDT EFFECTIVE DATE 10 OCT 2019: NIL.

valid to:
1910232359




ICAO
BGGL (SONDRESTROM FIR)

FIR
BGGL

Notam_id:
BGA0416/19

valid from:
1908141100

E) DIRECTION OF CRUISING LEVELS FOR RNP-ROUTE UT596 HAS BEEN CHANGED FROM EVEN TO ODD.

valid to:
1911062359




ICAO
BGGL (SONDRESTROM FIR)

FIR
BGGL

Notam_id:
BGA0470/19

valid from:
1911070000

E) TRIGGER NOTAM - PERM AIP AIRAC AMDT 07/19 WEF 07 NOV 2019. DME PA (CH26Y) WITHDRAWN. SUNRISE/SUNSET TABLES UPDATED. DIRECTION CHANGED FROM EVEN TO ODD AT AREA NAVIGATION (RNAV) ROUTE UT596.

valid to:
1911202359




ICAO
BGGL (SONDRESTROM FIR)

FIR
BGGL

Notam_id:
BGA0519/19

valid from:
1912050000

E) TRIGGER NOTAM - PERM AIP AIRAC AMDT 08/19 WEF 05 DEC 2019. LIST OF AIRAC EFFECTIVE DATES UPDATED.

valid to:
1912182359




ICAO
BGGL (SONDRESTROM FIR)

FIR
BGGL

Notam_id:
BGA0199/18

valid from:
1805310935

E) GREENLAND AND ADJACENT WATERS ARE CONSIDERED HOSTILE AREAS BY THE CIVIL AVIATION AUTHORITY (TBST). THREE MAJOR REASONS CONTRIBUTE TO DEFINING THE AREA AS HOSTILE: A SAFE FORCED LANDING CANNOT BE ACCOMPLISHED BECAUSE THE SURFACE IS INADEQUATE. THE HELICOPTER OCCUPANTS CANNOT BE ADEQUATELY PROTECTED FROM THE ELEMENTS. SEARCH AND RESCUE RESPONSE/CAPABILITY ARE NOT PROVIDED CONSISTENT WITH ANTICIPATED EXPOSURE.

valid to:
PERM




ICAO
BGAA (AASIAAT)

FIR
BGGL

Notam_id:
BGA0269/17

valid from:
1706081136

D) DAILY 1100-1115 2300-2315


E) ASCENT OR WEATHER BALLOON TAKES PLACE TWICE A DAY 1100-1115 AND 2300-2315. POSN 684201N0525105W LOCATED WEST OF THE AIRPORT AT A DISTANCE OF APPROX 3 KM. THE BALLOON CAN RISE TO A HEIGHT OF UP TO 35 KM. REF AIP GREENLAND AD 2 - BGAA - 4. F) SFC G) FL999

valid to:
PERM




ICAO
BGAA (AASIAAT)

FIR
BGGL

Notam_id:
BGB0625/19

valid from:
1911070000

E) TRIGGER NOTAM - PERM AIP AIRAC AMDT 07/19 WEF 07 NOV 2019. NEW TEXT CONCERNING WEATHER BALLOON ADDED.

valid to:
1911202359





Copyright Naviair   2003-2016